Time;durP1;ratioP1;P1;durP2;ratioP2;P2;SDS_P1;SDS_P2;PMS_P1;PMS_P2;Temp;Humidity;BMP_temperature;BMP_pressure;BME280_temperature;BME280_humidity;BME280_pressure;Samples;Min_cycle;Max_cycle;Signal;HPM_P1;HPM_P2
2022/03/11 00:02:06;;;;;;;14.73;12.43;;;;;;;3.73;56.33;101200.78;5047843;28;20606;-81
2022/03/11 00:04:33;;;;;;;13.20;11.93;;;;;;;3.66;57.16;101204.94;5051894;28;20303;-86
2022/03/11 00:06:59;;;;;;;12.40;11.40;;;;;;;3.68;56.99;101199.81;5052443;28;20765;-85
2022/03/11 00:09:25;;;;;;;13.47;12.27;;;;;;;3.66;56.57;101186.00;5052444;28;20632;-86
2022/03/11 00:11:53;;;;;;;12.20;11.13;;;;;;;3.64;56.92;101204.03;5052417;28;20213;-85
2022/03/11 00:14:20;;;;;;;12.57;11.37;;;;;;;3.65;57.06;101199.72;5052400;28;20263;-85
2022/03/11 00:16:47;;;;;;;14.17;12.77;;;;;;;3.59;57.33;101197.91;5054988;28;20225;-86
2022/03/11 00:19:13;;;;;;;12.73;11.47;;;;;;;3.50;57.16;101193.41;5054815;28;20237;-85
2022/03/11 00:21:40;;;;;;;12.47;11.37;;;;;;;3.45;57.22;101191.56;5068866;22;20720;-81
2022/03/11 00:24:06;;;;;;;13.23;11.83;;;;;;;3.31;57.80;101176.66;5032882;28;20276;-82
2022/03/11 00:26:36;;;;;;;14.00;12.23;;;;;;;3.21;57.96;101159.22;5045248;28;20234;-81
2022/03/11 00:29:04;;;;;;;12.93;11.73;;;;;;;3.22;58.37;101147.19;5038577;28;20233;-81
2022/03/11 00:31:31;;;;;;;12.27;11.17;;;;;;;3.18;58.13;101149.69;5032782;28;20218;-82
2022/03/11 00:33:58;;;;;;;12.83;11.53;;;;;;;3.11;58.31;101144.34;5018513;28;20265;-81
2022/03/11 00:36:25;;;;;;;13.43;11.90;;;;;;;3.05;58.43;101146.78;5017964;28;20227;-79
2022/03/11 00:38:52;;;;;;;12.97;11.77;;;;;;;3.04;58.58;101145.94;5018310;28;20231;-81
2022/03/11 00:41:18;;;;;;;12.50;11.40;;;;;;;3.03;59.04;101141.59;5017750;28;20250;-80
2022/03/11 00:43:47;;;;;;;12.97;11.67;;;;;;;3.00;58.48;101140.69;5018080;28;20669;-80
2022/03/11 00:46:18;;;;;;;12.23;11.03;;;;;;;3.00;58.69;101146.69;5017217;28;20256;-81
2022/03/11 00:48:44;;;;;;;12.50;11.27;;;;;;;2.98;58.72;101132.91;5018195;28;20203;-80
2022/03/11 00:51:11;;;;;;;13.50;12.20;;;;;;;2.96;58.85;101130.28;5018743;28;20222;-81
2022/03/11 00:53:37;;;;;;;12.93;11.63;;;;;;;2.96;58.91;101126.84;5020879;28;20206;-82
2022/03/11 00:56:04;;;;;;;13.30;12.10;;;;;;;2.92;58.73;101125.03;5031197;28;20584;-80
2022/03/11 00:58:31;;;;;;;12.23;11.03;;;;;;;2.87;58.89;101132.63;5018287;28;20222;-81
2022/03/11 01:00:57;;;;;;;12.40;11.17;;;;;;;2.84;59.61;101130.00;5019344;28;20206;-81
2022/03/11 01:03:25;;;;;;;13.97;12.07;;;;;;;2.78;59.37;101107.50;5018725;28;20232;-81
2022/03/11 01:05:51;;;;;;;13.60;12.30;;;;;;;2.77;59.99;101110.94;5019832;28;20624;-80
2022/03/11 01:08:17;;;;;;;13.33;12.03;;;;;;;2.65;60.14;101095.16;5020246;28;20230;-80
2022/03/11 01:10:44;;;;;;;13.17;11.97;;;;;;;2.67;60.00;101093.50;5020352;28;20234;-80
2022/03/11 01:13:10;;;;;;;14.27;11.80;;;;;;;2.66;60.07;101085.75;5020104;28;20636;-81
2022/03/11 01:15:36;;;;;;;14.10;11.27;;;;;;;2.63;59.59;101077.94;5022091;28;20230;-80
2022/03/11 01:18:03;;;;;;;12.33;11.13;;;;;;;2.62;60.23;101078.75;5023539;28;20206;-81
2022/03/11 01:20:30;;;;;;;12.97;11.67;;;;;;;2.59;60.04;101085.56;5024028;28;20681;-80
2022/03/11 01:22:57;;;;;;;13.20;12.00;;;;;;;2.57;60.75;101078.66;5023190;28;20241;-80
2022/03/11 01:25:23;;;;;;;13.60;12.20;;;;;;;2.47;60.68;101066.38;5032406;28;20201;-80
2022/03/11 01:27:49;;;;;;;12.40;11.20;;;;;;;2.44;60.68;101061.13;5042720;28;20217;-79
2022/03/11 01:30:16;;;;;;;13.37;12.13;;;;;;;2.39;60.21;101061.03;5043562;28;20206;-80
2022/03/11 01:32:43;;;;;;;13.33;12.03;;;;;;;2.32;61.29;101047.16;5043177;28;20226;-80
2022/03/11 01:35:11;;;;;;;13.27;11.87;;;;;;;2.29;61.04;101041.03;5043068;28;20324;-80
2022/03/11 01:37:42;;;;;;;14.37;11.53;;;;;;;2.26;61.71;101022.94;5043429;28;20580;-80
2022/03/11 01:40:09;;;;;;;17.30;12.50;;;;;;;2.21;61.17;101015.09;5043728;28;20221;-80
2022/03/11 01:42:36;;;;;;;12.83;11.63;;;;;;;2.15;62.19;101008.09;5043342;28;20222;-80
2022/03/11 01:45:04;;;;;;;13.63;12.23;;;;;;;2.12;62.15;100997.72;5043923;28;20207;-80
2022/03/11 01:47:31;;;;;;;13.27;11.87;;;;;;;2.07;61.88;100988.16;5043191;28;20210;-80
2022/03/11 01:49:57;;;;;;;12.87;11.60;;;;;;;2.01;62.23;100975.13;5044197;28;20207;-80
2022/03/11 01:52:27;;;;;;;13.77;12.40;;;;;;;1.97;62.89;100971.59;5045302;28;20233;-80
2022/03/11 01:54:56;;;;;;;13.37;11.87;;;;;;;1.88;62.32;100956.78;5024207;28;20215;-80
2022/03/11 01:57:23;;;;;;;12.90;11.20;;;;;;;1.83;62.64;100942.94;5040732;28;20218;-80
2022/03/11 01:59:50;;;;;;;13.13;11.80;;;;;;;1.76;63.93;100933.31;5043294;28;20632;-81
2022/03/11 02:02:19;;;;;;;14.27;12.33;;;;;;;1.70;64.50;100920.31;5042652;28;20691;-80
2022/03/11 02:04:46;;;;;;;12.63;11.33;;;;;;;1.71;64.17;100909.19;5041830;28;20204;-80
2022/03/11 02:07:13;;;;;;;15.63;11.87;;;;;;;1.67;64.08;100905.66;5041360;28;20218;-80
2022/03/11 02:09:40;;;;;;;13.50;12.17;;;;;;;1.66;63.86;100908.19;5041170;28;20213;-79
2022/03/11 02:12:09;;;;;;;13.07;11.87;;;;;;;1.71;63.97;100912.63;5040361;28;20226;-80
2022/03/11 02:14:36;;;;;;;12.67;11.43;;;;;;;1.70;64.03;100910.88;5040620;28;20206;-80
2022/03/11 02:17:04;;;;;;;12.07;10.87;;;;;;;1.71;63.47;100902.34;5040314;28;20250;-80
2022/03/11 02:19:30;;;;;;;14.60;11.70;;;;;;;1.69;64.07;100905.72;5040281;28;20214;-80
2022/03/11 02:22:00;;;;;;;15.53;12.03;;;;;;;1.70;63.69;100922.88;5040034;28;20309;-79
2022/03/11 02:24:28;;;;;;;13.27;11.97;;;;;;;1.68;63.89;100917.69;5033793;28;20206;-80
2022/03/11 02:26:55;;;;;;;14.37;11.37;;;;;;;1.66;63.23;100926.19;5033154;28;20202;-80
2022/03/11 02:29:21;;;;;;;14.00;12.60;;;;;;;1.52;64.05;100931.84;5039511;28;20215;-79
2022/03/11 02:31:47;;;;;;;12.93;11.60;;;;;;;1.30;64.81;100907.28;5037859;28;20238;-79
2022/03/11 02:34:14;;;;;;;16.57;12.90;;;;;;;1.20;65.50;100897.59;5038076;28;20232;-79
2022/03/11 02:36:40;;;;;;;11.97;10.77;;;;;;;1.17;65.87;100882.09;5039683;28;20257;-79
2022/03/11 02:39:07;;;;;;;13.77;11.57;;;;;;;1.07;65.91;100870.69;5040287;28;20242;-79
2022/03/11 02:41:36;;;;;;;12.73;11.43;;;;;;;0.97;65.83;100853.25;5040553;28;20783;-81
2022/03/11 02:44:03;;;;;;;12.67;11.47;;;;;;;0.89;66.17;100844.47;5039616;28;20838;-79
2022/03/11 02:46:29;;;;;;;13.00;11.70;;;;;;;1.04;65.45;100849.19;5038639;28;20705;-80
2022/03/11 02:48:55;;;;;;;12.53;11.37;;;;;;;1.04;66.05;100860.31;5039993;28;20206;-80
2022/03/11 02:51:22;;;;;;;13.47;12.17;;;;;;;0.99;65.92;100857.63;5039899;28;20230;-80
2022/03/11 02:53:48;;;;;;;12.70;11.40;;;;;;;1.02;66.06;100851.69;5033308;28;20206;-79
2022/03/11 02:56:15;;;;;;;13.70;12.33;;;;;;;1.05;65.72;100856.94;5029561;28;20265;-80
2022/03/11 02:58:42;;;;;;;14.03;10.73;;;;;;;1.07;65.82;100857.84;5037921;28;20242;-80
2022/03/11 03:01:10;;;;;;;12.83;11.53;;;;;;;1.09;65.54;100857.88;5038405;28;20216;-78
2022/03/11 03:03:36;;;;;;;11.77;10.57;;;;;;;1.13;64.65;100867.41;5037449;28;20217;-79
2022/03/11 03:06:03;;;;;;;12.27;11.07;;;;;;;1.11;65.14;100876.78;5037144;28;20229;-80
2022/03/11 03:08:29;;;;;;;11.90;10.70;;;;;;;1.19;64.30;100880.44;5036883;28;20261;-79
2022/03/11 03:10:56;;;;;;;13.43;10.90;;;;;;;1.22;63.76;100900.22;5037589;28;20234;-79
2022/03/11 03:13:22;;;;;;;12.60;11.40;;;;;;;1.23;63.96;100902.84;5037456;28;20747;-79
2022/03/11 03:15:50;;;;;;;13.47;11.97;;;;;;;1.23;63.81;100910.53;5037533;28;20206;-79
2022/03/11 03:18:17;;;;;;;12.17;10.97;;;;;;;1.25;63.46;100911.44;5037443;28;20272;-80
2022/03/11 03:20:43;;;;;;;11.97;10.77;;;;;;;1.27;63.04;100920.09;5037447;28;20217;-79
2022/03/11 03:23:10;;;;;;;12.83;10.27;;;;;;;1.23;63.30;100920.84;5033029;28;20247;-80
2022/03/11 03:25:36;;;;;;;12.10;10.97;;;;;;;1.24;63.05;100924.25;5028312;28;20268;-79
2022/03/11 03:28:03;;;;;;;11.73;10.57;;;;;;;1.23;62.99;100928.53;5037224;28;20206;-80
2022/03/11 03:30:29;;;;;;;12.47;11.10;;;;;;;1.33;62.70;100939.94;5037955;28;20233;-79
2022/03/11 03:32:57;;;;;;;11.10;10.00;;;;;;;1.30;62.36;100948.44;5036782;28;20226;-79
2022/03/11 03:35:23;;;;;;;11.90;10.70;;;;;;;1.32;62.38;100951.91;5037574;28;20239;-79
2022/03/11 03:37:50;;;;;;;10.40;9.43;;;;;;;1.32;62.05;100956.19;5036118;28;20736;-79
2022/03/11 03:40:16;;;;;;;11.30;10.20;;;;;;;1.38;61.42;100967.50;5037621;28;20202;-80
2022/03/11 03:42:46;;;;;;;13.57;10.87;;;;;;;1.29;62.41;100966.38;5036843;28;20287;-79
2022/03/11 03:45:12;;;;;;;12.93;10.70;;;;;;;1.26;62.39;100966.31;5035452;28;20213;-80
2022/03/11 03:47:39;;;;;;;11.07;9.87;;;;;;;1.31;62.30;100962.16;5035167;28;20205;-80
2022/03/11 03:50:07;;;;;;;10.77;9.63;;;;;;;1.31;61.56;100960.47;5034350;28;20267;-79
2022/03/11 03:52:34;;;;;;;11.10;10.00;;;;;;;1.24;61.68;100966.28;5036392;28;20650;-79
2022/03/11 03:55:00;;;;;;;10.90;9.57;;;;;;;1.19;62.60;100971.28;5025157;28;20278;-80
2022/03/11 03:57:27;;;;;;;11.40;10.30;;;;;;;1.17;62.85;100946.38;5034788;28;20229;-80
2022/03/11 03:59:53;;;;;;;13.53;9.67;;;;;;;1.13;62.72;100940.28;5035758;28;20216;-81
2022/03/11 04:02:20;;;;;;;10.90;9.67;;;;;;;1.13;62.71;100940.28;5034509;28;20776;-77
2022/03/11 04:04:46;;;;;;;10.23;9.23;;;;;;;1.05;63.07;100926.34;5035668;28;20206;-78
2022/03/11 04:07:14;;;;;;;12.00;10.70;;;;;;;1.11;62.26;100939.38;5035616;28;20268;-79
2022/03/11 04:09:40;;;;;;;10.67;9.50;;;;;;;1.11;62.33;100939.38;5035722;28;20609;-79
2022/03/11 04:12:09;;;;;;;11.53;9.80;;;;;;;1.11;62.74;100934.22;5034626;28;20230;-81
2022/03/11 04:14:35;;;;;;;12.30;10.27;;;;;;;1.10;62.39;100947.03;5035887;28;20672;-78
2022/03/11 04:17:02;;;;;;;11.33;10.23;;;;;;;1.07;62.43;100940.09;5034647;28;20728;-80
2022/03/11 04:19:28;;;;;;;15.30;10.33;;;;;;;1.05;61.83;100936.63;5035502;28;20264;-79
2022/03/11 04:21:55;;;;;;;14.53;9.83;;;;;;;1.03;62.50;100938.28;5035368;28;20264;-80
2022/03/11 04:24:23;;;;;;;11.60;10.37;;;;;;;0.98;62.78;100927.00;5029811;28;20735;-78
2022/03/11 04:26:49;;;;;;;11.90;9.50;;;;;;;0.91;62.74;100923.38;5028751;28;20293;-80
2022/03/11 04:29:16;;;;;;;11.47;10.27;;;;;;;0.87;63.21;100911.25;5036035;28;20287;-80
2022/03/11 04:31:42;;;;;;;11.70;10.60;;;;;;;0.85;63.36;100912.03;5035452;28;20230;-79
2022/03/11 04:34:09;;;;;;;12.13;10.33;;;;;;;0.79;63.06;100905.03;5035606;28;20634;-80
2022/03/11 04:36:38;;;;;;;10.77;9.67;;;;;;;0.75;63.28;100895.50;5034805;28;20264;-79
2022/03/11 04:39:04;;;;;;;11.13;9.60;;;;;;;0.79;62.53;100898.22;5034563;28;20302;-81
2022/03/11 04:41:33;;;;;;;11.83;8.83;;;;;;;0.78;62.90;100896.47;5034585;28;20234;-80
2022/03/11 04:43:59;;;;;;;11.07;9.97;;;;;;;0.71;63.00;100891.97;5033775;28;20209;-80
2022/03/11 04:46:26;;;;;;;10.40;9.40;;;;;;;0.66;63.45;100882.41;5034467;28;20641;-79
2022/03/11 04:48:52;;;;;;;10.50;9.50;;;;;;;0.69;62.93;100891.06;5035167;28;20228;-79
2022/03/11 04:51:20;;;;;;;10.33;9.30;;;;;;;0.66;63.15;100890.13;5035123;28;20870;-80
2022/03/11 04:53:47;;;;;;;10.80;9.67;;;;;;;0.66;63.26;100877.28;5030099;28;20206;-79
2022/03/11 04:56:13;;;;;;;10.83;9.73;;;;;;;0.67;62.89;100881.56;5026012;28;20255;-82
2022/03/11 04:58:41;;;;;;;11.80;9.10;;;;;;;0.48;63.56;100872.47;5034782;28;20228;-79
2022/03/11 05:01:07;;;;;;;9.87;8.83;;;;;;;0.39;64.04;100860.22;5035052;28;20260;-79
2022/03/11 05:03:34;;;;;;;12.53;10.33;;;;;;;0.36;64.52;100850.75;5035296;28;20209;-81
2022/03/11 05:06:00;;;;;;;10.77;9.43;;;;;;;0.34;64.24;100844.69;5034610;28;20206;-79
2022/03/11 05:08:27;;;;;;;10.27;9.23;;;;;;;0.22;64.76;100839.22;5034598;28;20268;-79
2022/03/11 05:10:53;;;;;;;12.30;9.67;;;;;;;0.13;65.50;100821.81;5034866;28;20217;-79
2022/03/11 05:13:20;;;;;;;12.93;10.07;;;;;;;0.02;66.38;100801.78;5035546;28;20253;-80
2022/03/11 05:15:47;;;;;;;11.17;10.07;;;;;;;0.09;65.78;100801.16;5034371;28;20205;-79
2022/03/11 05:18:14;;;;;;;10.33;9.13;;;;;;;0.05;66.00;100797.63;5033774;28;20309;-78
2022/03/11 05:20:40;;;;;;;11.53;10.00;;;;;;;-0.05;66.06;100798.19;5035484;28;20206;-79
2022/03/11 05:23:06;;;;;;;10.80;9.80;;;;;;;-0.07;65.70;100803.25;5032414;28;20249;-80
2022/03/11 05:25:33;;;;;;;11.20;9.70;;;;;;;-0.01;65.42;100806.00;5025843;28;20206;-79
2022/03/11 05:27:59;;;;;;;10.63;9.23;;;;;;;0.03;65.48;100808.69;5034207;28;20201;-80
2022/03/11 05:30:25;;;;;;;12.03;10.33;;;;;;;-0.01;65.51;100807.72;5035043;28;20476;-79
2022/03/11 05:32:53;;;;;;;13.30;11.03;;;;;;;0.02;65.12;100812.06;5033634;28;20438;-81
2022/03/11 05:35:20;;;;;;;11.73;9.03;;;;;;;0.02;65.05;100812.97;5034800;28;20233;-81
2022/03/11 05:37:46;;;;;;;12.13;10.47;;;;;;;0.00;65.38;100812.03;5034684;28;20276;-80
2022/03/11 05:40:13;;;;;;;10.73;9.70;;;;;;;-0.01;65.55;100815.41;5034669;28;20218;-81
2022/03/11 05:42:40;;;;;;;10.03;9.03;;;;;;;-0.02;65.02;100816.22;5034728;28;20226;-80
2022/03/11 05:45:08;;;;;;;9.87;8.90;;;;;;;-0.09;65.82;100806.63;5035108;28;20220;-80
2022/03/11 05:47:34;;;;;;;9.80;8.80;;;;;;;-0.09;65.28;100807.47;5033624;28;20241;-79
2022/03/11 05:50:03;;;;;;;10.63;9.63;;;;;;;-0.06;65.02;100816.97;5033890;28;20214;-79
2022/03/11 05:52:29;;;;;;;14.57;10.13;;;;;;;-0.05;64.67;100824.72;5033707;28;20229;-80
2022/03/11 05:54:56;;;;;;;12.00;9.23;;;;;;;0.00;64.38;100842.84;5023166;28;20209;-80
2022/03/11 05:57:22;;;;;;;9.47;8.47;;;;;;;0.04;63.93;100859.16;5031791;28;20286;-79
2022/03/11 05:59:49;;;;;;;10.90;9.20;;;;;;;0.10;63.30;100873.09;5034293;28;20213;-80
2022/03/11 06:02:15;;;;;;;10.30;9.20;;;;;;;0.15;62.96;100873.22;5035103;28;20222;-79
2022/03/11 06:04:42;;;;;;;10.97;9.73;;;;;;;0.16;62.96;100886.09;5037229;28;20332;-79
2022/03/11 06:07:10;;;;;;;12.33;9.50;;;;;;;0.18;62.99;100898.97;5038612;28;20213;-82
2022/03/11 06:09:37;;;;;;;19.20;10.87;;;;;;;0.22;62.70;100894.78;5046447;28;20214;-80
2022/03/11 06:12:04;;;;;;;15.77;9.83;;;;;;;0.20;62.82;100894.78;5044161;28;20225;-79
2022/03/11 06:14:30;;;;;;;11.37;9.43;;;;;;;0.19;63.27;100896.44;5045140;28;20205;-80
2022/03/11 06:16:57;;;;;;;12.40;9.13;;;;;;;0.20;62.85;100897.34;5010218;28;20284;-81
2022/03/11 06:19:23;;;;;;;13.43;9.63;;;;;;;0.19;63.09;100905.84;5017910;28;20211;-81
2022/03/11 06:21:49;;;;;;;11.67;10.00;;;;;;;0.18;63.31;100904.13;5033900;23;20234;-81
2022/03/11 06:24:17;;;;;;;9.83;8.93;;;;;;;0.19;62.93;100903.28;5035880;28;20673;-82
2022/03/11 06:26:44;;;;;;;15.07;9.80;;;;;;;0.18;63.22;100904.13;5035785;28;20247;-82
2022/03/11 06:29:11;;;;;;;10.43;9.37;;;;;;;0.20;63.13;100905.03;5027421;28;20245;-81
2022/03/11 06:31:37;;;;;;;13.83;9.27;;;;;;;0.17;63.64;100900.66;5026565;28;20236;-81
2022/03/11 06:34:05;;;;;;;11.03;9.93;;;;;;;0.15;63.41;100906.56;5008480;28;20210;-80
2022/03/11 06:36:34;;;;;;;11.83;9.40;;;;;;;0.16;63.22;100914.34;5008132;28;20209;-82
2022/03/11 06:39:00;;;;;;;10.60;8.77;;;;;;;0.19;62.37;100918.69;5005847;28;20222;-81
2022/03/11 06:41:28;;;;;;;12.83;9.20;;;;;;;0.23;62.24;100925.66;5008181;28;20233;-81
2022/03/11 06:43:54;;;;;;;11.37;9.10;;;;;;;0.24;62.35;100937.69;5007019;28;20252;-82
2022/03/11 06:46:21;;;;;;;10.00;8.90;;;;;;;0.27;61.73;100952.28;5006405;28;20621;-82
2022/03/11 06:48:47;;;;;;;11.27;9.47;;;;;;;0.33;61.29;100970.47;5007803;28;20209;-82
2022/03/11 06:51:13;;;;;;;16.70;9.27;;;;;;;0.39;60.78;100986.06;5007240;28;20226;-82
2022/03/11 06:53:40;;;;;;;11.77;8.97;;;;;;;0.42;60.57;100995.53;5008366;28;20252;-81
2022/03/11 06:56:06;;;;;;;11.10;9.93;;;;;;;0.47;60.74;100994.00;5011423;28;20250;-82
2022/03/11 06:58:34;;;;;;;10.53;9.17;;;;;;;0.51;60.18;101009.53;5006707;28;20226;-82
2022/03/11 07:01:00;;;;;;;12.27;9.13;;;;;;;0.57;60.22;101019.13;5007104;28;20217;-81
2022/03/11 07:03:27;;;;;;;12.80;9.30;;;;;;;0.58;60.53;101014.06;5006435;28;20222;-81
2022/03/11 07:05:53;;;;;;;15.73;9.73;;;;;;;0.62;60.85;101009.88;5009301;28;20625;-81
2022/03/11 07:08:20;;;;;;;16.33;9.93;;;;;;;0.69;60.24;101010.94;5006591;28;20278;-81
2022/03/11 07:10:46;;;;;;;9.63;8.60;;;;;;;0.68;59.96;101006.63;5007777;28;20203;-81
2022/03/11 07:13:13;;;;;;;11.80;8.80;;;;;;;0.71;59.73;101011.84;5007811;28;20309;-81
2022/03/11 07:15:40;;;;;;;11.33;8.43;;;;;;;0.76;59.97;101013.75;5007860;28;20631;-81
2022/03/11 07:18:07;;;;;;;11.23;9.13;;;;;;;0.81;60.30;101013.00;5008248;28;20219;-80
2022/03/11 07:20:34;;;;;;;9.80;8.83;;;;;;;0.84;60.15;101006.25;5006773;28;20200;-82
2022/03/11 07:23:00;;;;;;;12.27;9.37;;;;;;;0.85;60.07;101008.00;5006919;28;20226;-81
2022/03/11 07:25:27;;;;;;;10.47;9.47;;;;;;;0.90;60.20;101016.72;5015195;28;20207;-82
2022/03/11 07:27:53;;;;;;;10.07;8.93;;;;;;;0.93;60.32;101010.78;5010106;28;20203;-82
2022/03/11 07:30:19;;;;;;;9.63;8.73;;;;;;;0.95;60.15;101014.28;5007391;28;20670;-82
2022/03/11 07:32:50;;;;;;;9.80;8.80;;;;;;;0.99;58.83;101029.84;5008270;28;20720;-81
2022/03/11 07:35:16;;;;;;;10.10;9.13;;;;;;;1.01;58.63;101045.31;5008123;28;20271;-81
2022/03/11 07:37:43;;;;;;;10.17;9.07;;;;;;;1.06;58.56;101050.59;5006174;28;20223;-80
2022/03/11 07:40:11;;;;;;;9.70;8.73;;;;;;;1.07;59.24;101058.38;5005270;28;20262;-80
2022/03/11 07:42:38;;;;;;;12.47;9.60;;;;;;;1.14;57.96;101064.53;5005775;28;20227;-82
2022/03/11 07:45:06;;;;;;;9.80;8.87;;;;;;;1.19;58.07;101069.00;5005654;28;20209;-81
2022/03/11 07:47:32;;;;;;;10.10;9.10;;;;;;;1.19;57.89;101069.00;5006629;28;20199;-82
2022/03/11 07:50:00;;;;;;;10.40;8.23;;;;;;;1.23;57.23;101074.22;5007792;28;20200;-80
2022/03/11 07:52:26;;;;;;;11.03;8.77;;;;;;;1.31;56.27;101101.03;5005478;28;20269;-81
2022/03/11 07:54:53;;;;;;;8.40;7.60;;;;;;;1.34;56.00;101106.28;5016569;28;20248;-81
2022/03/11 07:57:19;;;;;;;8.87;7.63;;;;;;;1.39;55.49;101135.59;5010979;28;20203;-83
2022/03/11 07:59:46;;;;;;;10.00;8.60;;;;;;;1.43;56.69;101147.72;5005446;28;20618;-80
2022/03/11 08:02:12;;;;;;;10.40;9.30;;;;;;;1.43;58.25;101118.53;5007689;28;20251;-80
2022/03/11 08:04:38;;;;;;;10.13;9.07;;;;;;;1.47;57.67;101087.81;5005644;28;20214;-80
2022/03/11 08:07:09;;;;;;;9.87;8.87;;;;;;;1.55;57.00;101082.88;5003165;28;20203;-80
2022/03/11 08:09:38;;;;;;;9.07;8.27;;;;;;;1.62;56.82;101086.47;5005610;28;20210;-81
2022/03/11 08:12:05;;;;;;;10.90;9.70;;;;;;;1.64;56.68;101089.97;5006060;28;20226;-79
2022/03/11 08:14:32;;;;;;;10.60;8.73;;;;;;;1.68;55.82;101117.53;5003635;28;20215;-81
2022/03/11 08:16:59;;;;;;;8.40;7.60;;;;;;;1.71;54.95;101133.94;5003715;28;20249;-81
2022/03/11 08:19:25;;;;;;;9.20;8.20;;;;;;;1.77;54.70;101146.13;5004573;28;20313;-81
2022/03/11 08:21:52;;;;;;;9.93;8.10;;;;;;;1.78;54.80;101158.13;5003780;28;20219;-83
2022/03/11 08:24:21;;;;;;;9.70;8.70;;;;;;;1.82;53.90;101167.69;5004070;28;20293;-81
2022/03/11 08:26:48;;;;;;;9.80;8.80;;;;;;;1.86;54.27;101171.22;5010191;28;20269;-82
2022/03/11 08:29:15;;;;;;;9.70;8.03;;;;;;;1.85;55.23;101162.63;5003301;28;20227;-79
2022/03/11 08:31:41;;;;;;;9.63;8.63;;;;;;;1.87;54.84;101160.97;5001765;28;20258;-81
2022/03/11 08:34:08;;;;;;;9.80;7.90;;;;;;;1.91;55.34;101147.38;5005047;28;20210;-82
2022/03/11 08:36:34;;;;;;;10.23;8.30;;;;;;;1.98;54.94;101157.00;5009376;28;20202;-80
2022/03/11 08:39:01;;;;;;;9.43;8.10;;;;;;;1.96;55.55;101155.19;5014496;28;20227;-81
2022/03/11 08:41:30;;;;;;;9.23;8.20;;;;;;;2.04;55.65;101145.13;5013121;28;20195;-81
2022/03/11 08:43:56;;;;;;;9.90;8.53;;;;;;;2.13;55.46;101151.41;5014316;28;20238;-81
2022/03/11 08:46:23;;;;;;;8.87;7.90;;;;;;;2.18;54.58;101151.50;5013763;28;20218;-82
2022/03/11 08:48:49;;;;;;;9.93;8.33;;;;;;;2.23;54.35;101162.81;5014096;28;20203;-81
2022/03/11 08:51:17;;;;;;;8.67;7.87;;;;;;;2.27;52.65;101179.22;5014237;28;20207;-79
2022/03/11 08:53:48;;;;;;;9.23;7.90;;;;;;;2.34;53.03;101192.31;5013603;28;20227;-78
2022/03/11 08:56:15;;;;;;;11.33;7.87;;;;;;;2.40;51.75;101219.97;5013999;28;20213;-79
2022/03/11 08:58:48;;;;;;;8.80;7.70;;;;;;;2.48;51.07;101227.88;5033035;28;20245;-79
2022/03/11 09:01:15;;;;;;;8.53;7.47;;;;;;;2.57;52.85;101192.03;5033419;28;20234;-79
2022/03/11 09:03:41;;;;;;;8.37;7.57;;;;;;;2.66;51.70;101220.63;5032705;28;20272;-81
2022/03/11 09:06:08;;;;;;;11.50;7.40;;;;;;;2.70;52.75;101266.28;5033144;28;20210;-80
2022/03/11 09:08:34;;;;;;;8.83;7.90;;;;;;;2.73;51.49;101242.28;5032178;28;20209;-80
2022/03/11 09:11:01;;;;;;;9.13;7.60;;;;;;;2.79;50.49;101255.31;5033151;28;20202;-81
2022/03/11 09:13:47;;;;;;;9.07;8.07;;;;;;;2.83;50.54;101272.63;5033189;28;20225;-80
2022/03/11 09:16:14;;;;;;;8.33;7.53;;;;;;;2.84;50.65;101271.81;5033763;28;20206;-79
2022/03/11 09:18:40;;;;;;;8.73;7.83;;;;;;;2.84;49.57;101287.28;5033195;28;20863;-79
2022/03/11 09:21:06;;;;;;;8.10;7.30;;;;;;;2.88;49.55;101294.25;5034129;28;20299;-80
2022/03/11 09:23:36;;;;;;;9.20;7.43;;;;;;;2.91;49.14;101293.44;5026893;28;20234;-81
2022/03/11 09:26:03;;;;;;;7.17;6.43;;;;;;;2.98;50.00;101305.69;5028019;28;20253;-81
2022/03/11 09:28:32;;;;;;;6.93;6.23;;;;;;;3.06;49.34;101311.91;5032849;28;20272;-81
2022/03/11 09:31:01;;;;;;;7.60;6.90;;;;;;;3.11;47.51;101327.50;5031831;28;20210;-81
2022/03/11 09:33:28;;;;;;;7.13;6.37;;;;;;;3.14;46.81;101353.38;5033290;28;20248;-80
2022/03/11 09:35:55;;;;;;;7.70;6.70;;;;;;;3.21;47.45;101362.13;5033281;28;20218;-80
2022/03/11 09:38:23;;;;;;;8.90;7.17;;;;;;;3.23;47.48;101376.84;5036828;28;20226;-80
2022/03/11 09:40:53;;;;;;;7.50;6.20;;;;;;;3.34;47.18;101371.94;5037634;28;20213;-81
2022/03/11 09:43:22;;;;;;;7.33;6.57;;;;;;;3.42;45.96;101404.00;5036324;28;20230;-81
2022/03/11 09:45:51;;;;;;;8.30;7.50;;;;;;;3.47;48.09;101394.66;5036900;28;20817;-80
2022/03/11 09:48:22;;;;;;;8.27;7.10;;;;;;;3.55;48.00;101374.22;5037473;28;20206;-81
2022/03/11 09:50:50;;;;;;;7.33;6.57;;;;;;;3.65;47.90;101350.38;5036920;28;20214;-81
2022/03/11 09:53:23;;;;;;;6.80;6.00;;;;;;;3.74;45.83;101354.88;5036724;28;20325;-81
2022/03/11 09:55:50;;;;;;;6.60;6.00;;;;;;;3.78;44.78;101414.34;5021550;28;20202;-81
2022/03/11 09:58:21;;;;;;;7.57;6.23;;;;;;;3.85;44.45;101438.66;5036005;28;20232;-80
2022/03/11 10:00:49;;;;;;;7.63;6.83;;;;;;;3.95;45.61;101457.81;5036677;28;20252;-81
2022/03/11 10:03:16;;;;;;;6.97;6.23;;;;;;;4.00;45.80;101443.28;5036391;28;20774;-81
2022/03/11 10:05:50;;;;;;;6.87;6.13;;;;;;;4.08;43.74;101451.22;5037517;28;20255;-82
2022/03/11 10:08:32;;;;;;;6.80;6.10;;;;;;;4.15;42.93;101482.41;5039001;28;20205;-81
2022/03/11 10:11:23;;;;;;;8.67;5.83;;;;;;;4.22;42.02;101517.03;5039377;28;20217;-81
2022/03/11 10:13:50;;;;;;;6.90;5.67;;;;;;;4.26;42.22;101546.41;5039240;28;20230;-81
2022/03/11 10:16:18;;;;;;;6.30;5.70;;;;;;;4.35;41.32;101539.75;5038433;28;20207;-82
2022/03/11 10:18:54;;;;;;;6.47;5.80;;;;;;;4.42;40.54;101581.25;5039962;28;20249;-82
2022/03/11 10:21:29;;;;;;;6.60;5.90;;;;;;;4.45;41.85;101587.38;5040535;28;20209;-82
2022/03/11 10:23:55;;;;;;;14.70;5.97;;;;;;;4.54;42.31;101569.53;5036003;28;20218;-82
2022/03/11 10:26:37;;;;;;;7.17;6.57;;;;;;;4.66;41.29;101575.81;5020963;28;20213;-82
2022/03/11 10:29:06;;;;;;;6.00;5.43;;;;;;;4.78;41.29;101568.34;5040009;28;20318;-82
2022/03/11 10:31:36;;;;;;;6.57;5.97;;;;;;;4.89;40.81;101571.19;5039608;28;20214;-81
2022/03/11 10:34:15;;;;;;;5.93;5.33;;;;;;;4.97;41.17;101591.22;5040995;28;20296;-82
2022/03/11 10:36:50;;;;;;;8.50;7.00;;;;;;;5.05;43.09;101549.09;5040208;28;20211;-82
2022/03/11 10:39:19;;;;;;;7.37;6.67;;;;;;;5.12;41.17;101540.63;5039596;28;20230;-82
2022/03/11 10:41:50;;;;;;;6.83;6.17;;;;;;;5.21;42.45;101538.22;5040050;28;20236;-82
2022/03/11 10:44:22;;;;;;;6.57;5.70;;;;;;;5.30;42.56;101533.25;5041000;28;20214;-82
2022/03/11 10:46:52;;;;;;;7.17;6.47;;;;;;;5.37;41.72;101545.47;5040664;28;20211;-82
2022/03/11 10:49:32;;;;;;;7.17;6.13;;;;;;;5.45;40.78;101568.03;5040043;28;20207;-82
2022/03/11 10:52:02;;;;;;;7.93;6.33;;;;;;;5.56;42.34;101569.16;5039484;28;20260;-82
2022/03/11 10:54:33;;;;;;;6.87;5.97;;;;;;;5.64;41.66;101540.81;5030585;28;20211;-82
2022/03/11 10:57:11;;;;;;;7.30;6.70;;;;;;;5.70;42.67;101531.44;5025670;28;20264;-82
2022/03/11 10:59:38;;;;;;;9.67;6.73;;;;;;;5.71;43.12;101527.13;5039399;28;20230;-82
2022/03/11 11:02:04;;;;;;;6.70;6.10;;;;;;;5.82;41.72;101510.06;5039712;28;20771;-81
2022/03/11 11:04:33;;;;;;;7.07;6.37;;;;;;;5.87;41.03;101542.13;5050941;28;20207;-81
2022/03/11 11:07:05;;;;;;;9.17;6.17;;;;;;;5.93;41.07;101551.72;5058282;28;20195;-82
2022/03/11 11:09:33;;;;;;;6.60;6.00;;;;;;;6.10;41.67;101554.63;5058027;28;20221;-80
2022/03/11 11:12:00;;;;;;;8.43;5.67;;;;;;;6.25;38.74;101560.09;5057680;28;20306;-82
2022/03/11 11:14:27;;;;;;;6.90;6.20;;;;;;;6.33;38.74;101592.19;5038938;28;20208;-82
2022/03/11 11:16:57;;;;;;;8.53;6.70;;;;;;;6.41;38.16;101644.19;5036799;28;20256;-80
2022/03/11 11:19:25;;;;;;;7.70;6.33;;;;;;;6.48;38.61;101647.75;5035198;28;20235;-81
2022/03/11 11:21:53;;;;;;;8.73;6.47;;;;;;;6.56;39.54;101653.94;5034979;28;20229;-82
2022/03/11 11:24:24;;;;;;;9.27;6.37;;;;;;;6.67;39.70;101633.41;5028919;28;20220;-77
2022/03/11 11:26:54;;;;;;;7.43;6.73;;;;;;;6.74;39.46;101632.66;5024245;28;20202;-79